Rutherwood, North Carolina
Current Conditions -  °F | °C
As of 6:15 PM on Wednesday 17 Dec 2014 (Local Time) from KTNB Reporting Station
Clear Clear  
Wind Chill: 30°   Ceiling: Unl
Heat Index: 37°   Visibility: 10mi
Dew Point: 29°   Wind: 9mph
Humidity: 72%   Direction: 310°NW
Pressure: 30.09"   Gusts: NA
Location:  36.2085°N, 81.6605°W
Report Text: KTNB 172315Z AUTO 31008KT 10SM CLR 03/M02 A3009 RMK AO2 T00261019
Loading
Personal Weather Stations






























Interactive Weather Map New forecast layout! Learn more

10-Day Weather Forecast

Advertisements
Track Severe Weather on mobile